Time;durP1;ratioP1;P1;durP2;ratioP2;P2;SDS_P1;SDS_P2;PMS_P1;PMS_P2;Temp;Humidity;BMP_temperature;BMP_pressure;BME280_temperature;BME280_humidity;BME280_pressure;Samples;Min_cycle;Max_cycle;Signal;HPM_P1;HPM_P2
2022/08/16 00:01:56;;;;;;;4.73;4.33;;;17.80;99.90;;;;;;5073305;28;20634;-70
2022/08/16 00:04:22;;;;;;;4.67;4.37;;;17.70;99.90;;;;;;5072601;28;20578;-70
2022/08/16 00:06:49;;;;;;;8.47;5.17;;;17.70;99.90;;;;;;5073036;28;20574;-70
2022/08/16 00:09:16;;;;;;;5.27;4.37;;;17.60;99.90;;;;;;5072631;28;20972;-70
2022/08/16 00:11:44;;;;;;;6.70;4.83;;;17.40;99.90;;;;;;5072859;28;21044;-71
2022/08/16 00:14:14;;;;;;;7.23;5.47;;;17.40;99.90;;;;;;5072902;28;20574;-72
2022/08/16 00:16:41;;;;;;;4.63;4.33;;;17.50;99.90;;;;;;5072763;28;20610;-72
2022/08/16 00:19:07;;;;;;;5.33;4.83;;;17.40;99.90;;;;;;5072979;28;20582;-72
2022/08/16 00:21:34;;;;;;;5.60;5.27;;;17.40;99.90;;;;;;5073059;28;20578;-72
2022/08/16 00:24:01;;;;;;;7.20;5.67;;;17.30;99.90;;;;;;5071389;28;20714;-72
2022/08/16 00:26:27;;;;;;;6.00;5.50;;;17.40;99.90;;;;;;5072961;28;20595;-72
2022/08/16 00:28:54;;;;;;;6.07;5.43;;;17.50;99.90;;;;;;5072685;28;20610;-72
2022/08/16 00:31:21;;;;;;;6.00;5.50;;;17.50;99.90;;;;;;5072678;28;20630;-72
2022/08/16 00:33:47;;;;;;;6.80;5.50;;;17.50;99.90;;;;;;5073426;28;20622;-72
2022/08/16 00:36:13;;;;;;;6.50;6.10;;;17.60;99.90;;;;;;5076652;28;20578;-72
2022/08/16 00:38:40;;;;;;;6.00;5.43;;;17.60;99.90;;;;;;5076229;28;20570;-72
2022/08/16 00:41:06;;;;;;;6.00;5.60;;;17.70;99.90;;;;;;5076301;28;21195;-71
2022/08/16 00:43:35;;;;;;;6.27;5.67;;;17.70;99.90;;;;;;5076521;28;20610;-72
2022/08/16 00:46:19;;;;;;;10.63;6.03;;;17.60;99.90;;;;;;5076038;28;20586;-72
2022/08/16 00:48:47;;;;;;;10.73;5.50;;;17.70;99.90;;;;;;5076424;28;20648;-72
2022/08/16 00:51:16;;;;;;;8.20;6.07;;;17.60;99.90;;;;;;5076061;28;20657;-72
2022/08/16 00:53:43;;;;;;;6.13;5.60;;;17.70;99.90;;;;;;5076381;28;20577;-72
2022/08/16 00:56:14;;;;;;;6.43;5.93;;;17.80;99.90;;;;;;5076774;28;20635;-72
2022/08/16 00:58:44;;;;;;;8.80;7.00;;;17.80;99.90;;;;;;5076108;28;20675;-72
2022/08/16 01:01:12;;;;;;;7.93;6.87;;;17.80;99.90;;;;;;5076290;28;20582;-72
2022/08/16 01:03:42;;;;;;;7.07;6.47;;;17.80;99.90;;;;;;5076488;28;20579;-72
2022/08/16 01:06:11;;;;;;;8.57;6.77;;;17.70;99.90;;;;;;5075942;28;21045;-72
2022/08/16 01:08:40;;;;;;;6.77;6.23;;;17.70;99.90;;;;;;5075748;28;21143;-71
2022/08/16 01:11:06;;;;;;;6.73;6.20;;;17.70;99.90;;;;;;5075961;28;20706;-72
2022/08/16 01:13:35;;;;;;;9.80;6.20;;;17.70;99.90;;;;;;5076099;28;20712;-72
2022/08/16 01:16:17;;;;;;;7.20;6.60;;;17.70;99.90;;;;;;5075967;28;20570;-72
2022/08/16 01:18:53;;;;;;;7.47;6.93;;;17.70;99.90;;;;;;5075710;28;20613;-72
2022/08/16 01:21:45;;;;;;;6.33;5.80;;;17.70;99.90;;;;;;5075802;28;20634;-72
2022/08/16 01:24:33;;;;;;;6.90;6.30;;;17.70;99.90;;;;;;5075834;28;20630;-72
2022/08/16 01:27:03;;;;;;;6.63;6.03;;;17.60;99.90;;;;;;5075997;28;20606;-72
2022/08/16 01:29:44;;;;;;;6.80;6.17;;;17.60;99.90;;;;;;5075801;28;20594;-71
2022/08/16 01:32:10;;;;;;;8.57;6.50;;;17.60;99.90;;;;;;5075689;28;21235;-72
2022/08/16 01:34:37;;;;;;;6.90;6.30;;;17.60;99.90;;;;;;5075638;28;20579;-72
2022/08/16 01:37:08;;;;;;;6.80;6.30;;;17.50;99.90;;;;;;5075705;28;20630;-72
2022/08/16 01:39:35;;;;;;;7.37;6.83;;;17.50;99.90;;;;;;5075394;28;21105;-72
2022/08/16 01:42:06;;;;;;;8.47;7.53;;;17.50;99.90;;;;;;5075520;28;20676;-72
2022/08/16 01:44:33;;;;;;;7.80;6.63;;;17.30;99.90;;;;;;5073557;28;20679;-72
2022/08/16 01:46:59;;;;;;;8.33;7.00;;;17.40;99.90;;;;;;5074421;28;20625;-72
2022/08/16 01:49:33;;;;;;;8.13;7.40;;;17.40;99.90;;;;;;5075178;28;20617;-72
2022/08/16 01:52:04;;;;;;;10.80;7.50;;;17.40;99.90;;;;;;5075071;28;21241;-72
2022/08/16 01:54:32;;;;;;;8.80;7.90;;;17.40;99.90;;;;;;5074976;28;20921;-72
2022/08/16 01:57:00;;;;;;;7.53;6.93;;;17.40;99.90;;;;;;5075344;28;20648;-71
2022/08/16 01:59:27;;;;;;;9.30;6.73;;;17.40;99.90;;;;;;5074982;28;20603;-72
2022/08/16 02:01:54;;;;;;;7.83;6.90;;;17.30;99.90;;;;;;5074949;28;20984;-72
2022/08/16 02:04:23;;;;;;;9.83;6.60;;;17.30;99.90;;;;;;5074871;28;20590;-72
2022/08/16 02:06:50;;;;;;;8.20;7.40;;;17.30;99.90;;;;;;5074974;28;20650;-72
2022/08/16 02:09:20;;;;;;;6.20;5.70;;;17.10;99.90;;;;;;5074696;28;20614;-72
2022/08/16 02:11:48;;;;;;;6.33;5.83;;;17.20;99.90;;;;;;5074555;28;20604;-72
2022/08/16 02:14:15;;;;;;;6.60;5.60;;;17.20;99.90;;;;;;5074930;28;20665;-72
2022/08/16 02:16:43;;;;;;;7.00;6.50;;;17.20;99.90;;;;;;5074899;28;20677;-72
2022/08/16 02:19:11;;;;;;;7.03;6.53;;;17.10;99.90;;;;;;5074765;28;20592;-72
2022/08/16 02:21:38;;;;;;;6.53;5.77;;;17.10;99.90;;;;;;5074390;28;21001;-72
2022/08/16 02:24:05;;;;;;;7.33;6.73;;;17.30;99.90;;;;;;5056737;28;20649;-72
2022/08/16 02:26:31;;;;;;;7.20;6.60;;;17.30;99.90;;;;;;5072906;28;21177;-72
2022/08/16 02:28:58;;;;;;;8.50;7.70;;;17.30;99.90;;;;;;5074402;28;21176;-72
2022/08/16 02:31:24;;;;;;;6.30;5.80;;;17.20;99.90;;;;;;5074327;28;20674;-72
2022/08/16 02:33:51;;;;;;;7.97;7.17;;;17.10;99.90;;;;;;5074250;28;20574;-72
2022/08/16 02:36:18;;;;;;;9.47;8.33;;;17.20;99.90;;;;;;5074541;28;20582;-72
2022/08/16 02:38:45;;;;;;;8.10;7.30;;;17.10;99.90;;;;;;5074073;28;20592;-72
2022/08/16 02:41:12;;;;;;;10.20;7.97;;;17.20;99.90;;;;;;5074154;28;20622;-72
2022/08/16 02:43:38;;;;;;;9.33;8.53;;;17.30;99.90;;;;;;5074092;28;20652;-71
2022/08/16 02:46:06;;;;;;;8.07;7.40;;;17.40;99.90;;;;;;5074240;28;20612;-71
2022/08/16 02:48:33;;;;;;;8.67;7.90;;;17.40;99.90;;;;;;5073757;28;20595;-70
2022/08/16 02:51:02;;;;;;;8.60;7.80;;;17.40;99.90;;;;;;5073623;28;20644;-71
2022/08/16 02:53:29;;;;;;;9.23;8.43;;;17.40;99.90;;;;;;5074001;28;20696;-71
2022/08/16 02:55:56;;;;;;;8.03;7.40;;;17.50;99.90;;;;;;5073581;28;20691;-71
2022/08/16 02:58:23;;;;;;;12.60;8.90;;;17.50;99.90;;;;;;5073552;28;20622;-71
2022/08/16 03:00:49;;;;;;;7.40;6.60;;;17.50;99.90;;;;;;5073801;28;20575;-71
2022/08/16 03:03:16;;;;;;;9.57;6.90;;;17.40;99.90;;;;;;5073534;28;20652;-71
2022/08/16 03:05:46;;;;;;;8.53;7.70;;;17.50;99.90;;;;;;5073533;28;20646;-71
2022/08/16 03:08:12;;;;;;;7.23;6.57;;;17.60;99.90;;;;;;5073853;28;20633;-71
2022/08/16 03:10:39;;;;;;;8.00;7.30;;;17.60;99.90;;;;;;5073694;28;20590;-71
2022/08/16 03:13:06;;;;;;;8.50;7.70;;;17.50;99.90;;;;;;5073723;28;20579;-71
2022/08/16 03:15:33;;;;;;;7.00;6.40;;;17.60;99.90;;;;;;5073828;28;20585;-71
2022/08/16 03:18:00;;;;;;;8.10;7.40;;;17.70;99.90;;;;;;5073796;28;20586;-71
2022/08/16 03:20:27;;;;;;;6.70;6.20;;;17.80;99.90;;;;;;5073646;28;20622;-71
2022/08/16 03:22:53;;;;;;;7.80;7.10;;;17.90;99.90;;;;;;5071940;28;20615;-71
2022/08/16 03:25:21;;;;;;;8.50;7.80;;;18.00;99.90;;;;;;5073257;28;20645;-71
2022/08/16 03:27:47;;;;;;;9.37;7.90;;;18.10;99.90;;;;;;5073462;28;20966;-71
2022/08/16 03:30:18;;;;;;;7.97;7.17;;;18.10;99.90;;;;;;5073422;28;20635;-71
2022/08/16 03:32:47;;;;;;;8.40;7.20;;;18.10;99.90;;;;;;5073165;28;20625;-71
2022/08/16 03:35:15;;;;;;;9.33;8.53;;;18.10;99.90;;;;;;5073233;28;20705;-71
2022/08/16 03:37:43;;;;;;;8.70;7.90;;;18.10;99.90;;;;;;5073315;28;20583;-71
2022/08/16 03:40:10;;;;;;;9.87;8.57;;;18.10;99.90;;;;;;5073096;28;21169;-71
2022/08/16 03:42:37;;;;;;;10.10;8.40;;;18.10;99.90;;;;;;5073257;28;20592;-71
2022/08/16 03:45:04;;;;;;;8.87;8.03;;;18.10;99.90;;;;;;5071914;28;20626;-71
2022/08/16 03:47:31;;;;;;;8.03;7.23;;;18.00;99.90;;;;;;5073091;28;20685;-71
2022/08/16 03:49:57;;;;;;;7.80;7.20;;;17.80;99.90;;;;;;5073169;28;20622;-71
2022/08/16 03:52:24;;;;;;;7.20;6.60;;;17.80;99.90;;;;;;5072993;28;20703;-71
2022/08/16 03:54:51;;;;;;;7.83;7.17;;;17.80;99.90;;;;;;5072931;28;20680;-71
2022/08/16 03:57:18;;;;;;;7.57;6.97;;;17.70;99.90;;;;;;5073112;28;20739;-71
2022/08/16 03:59:44;;;;;;;8.23;7.43;;;17.70;99.90;;;;;;5072897;28;20990;-71
2022/08/16 04:02:11;;;;;;;6.90;6.30;;;17.60;99.90;;;;;;5072621;28;20630;-71
2022/08/16 04:04:38;;;;;;;7.03;6.43;;;17.60;99.90;;;;;;5072970;28;20654;-71
2022/08/16 04:07:06;;;;;;;8.83;8.13;;;17.70;99.90;;;;;;5072651;28;20619;-71
2022/08/16 04:09:33;;;;;;;10.50;6.67;;;17.60;99.90;;;;;;5075412;28;20630;-71
2022/08/16 04:11:59;;;;;;;8.70;6.70;;;17.70;99.90;;;;;;5076694;28;20775;-71
2022/08/16 04:14:26;;;;;;;6.67;6.17;;;17.70;99.90;;;;;;5077269;28;20582;-71
2022/08/16 04:16:52;;;;;;;10.03;7.13;;;17.70;99.90;;;;;;5077034;28;20933;-71
2022/08/16 04:19:19;;;;;;;8.10;6.90;;;17.60;99.90;;;;;;5076898;28;20631;-71
2022/08/16 04:21:45;;;;;;;7.90;7.27;;;17.70;99.90;;;;;;5077170;28;20626;-70
2022/08/16 04:24:11;;;;;;;8.03;7.30;;;17.90;99.90;;;;;;5076627;28;20645;-70
2022/08/16 04:26:38;;;;;;;7.57;6.87;;;18.00;99.90;;;;;;5075476;28;20626;-70
2022/08/16 04:29:04;;;;;;;6.63;5.60;;;18.10;99.90;;;;;;5076846;28;20586;-71
2022/08/16 04:31:31;;;;;;;6.60;6.10;;;18.20;99.90;;;;;;5076478;28;20622;-72
2022/08/16 04:33:58;;;;;;;6.67;6.00;;;18.20;99.90;;;;;;5077400;28;20566;-74
2022/08/16 04:36:26;;;;;;;6.73;6.13;;;18.30;99.90;;;;;;5077112;28;20975;-72
2022/08/16 04:38:53;;;;;;;9.13;6.83;;;18.30;99.90;;;;;;5076825;28;20610;-72
2022/08/16 04:41:21;;;;;;;7.30;6.70;;;18.10;99.90;;;;;;5076911;28;20621;-72
2022/08/16 04:43:48;;;;;;;7.33;6.70;;;18.10;99.90;;;;;;5077356;28;20647;-73
2022/08/16 04:46:15;;;;;;;8.43;7.37;;;18.10;99.90;;;;;;5077915;28;20582;-75
2022/08/16 04:48:42;;;;;;;6.83;6.30;;;18.00;99.90;;;;;;5077511;28;21034;-74
2022/08/16 04:51:10;;;;;;;7.53;7.00;;;17.80;99.90;;;;;;5076567;28;20634;-74
2022/08/16 04:53:37;;;;;;;8.90;8.20;;;17.90;99.90;;;;;;5076609;28;20639;-74
2022/08/16 04:56:04;;;;;;;9.50;8.70;;;18.00;99.90;;;;;;5076567;28;20695;-74
2022/08/16 04:58:32;;;;;;;10.07;9.10;;;17.90;99.90;;;;;;5076175;28;20991;-74
2022/08/16 05:01:00;;;;;;;9.27;8.37;;;17.90;99.90;;;;;;5076395;28;20664;-74
2022/08/16 05:03:27;;;;;;;10.13;9.23;;;17.80;99.90;;;;;;5076328;28;20614;-74
2022/08/16 05:05:53;;;;;;;10.73;8.93;;;17.90;99.90;;;;;;5076346;28;21007;-74
2022/08/16 05:08:20;;;;;;;9.10;8.40;;;18.10;99.90;;;;;;5076251;28;20571;-74
2022/08/16 05:10:47;;;;;;;10.43;9.53;;;18.20;99.90;;;;;;5076119;28;20941;-74
2022/08/16 05:13:16;;;;;;;10.23;9.30;;;18.20;99.90;;;;;;5076515;28;20638;-74
2022/08/16 05:15:42;;;;;;;10.83;9.77;;;18.20;99.90;;;;;;5075395;28;20573;-74
2022/08/16 05:18:09;;;;;;;10.80;9.03;;;18.30;99.90;;;;;;5076656;28;20581;-74
2022/08/16 05:20:35;;;;;;;10.20;9.23;;;18.40;99.90;;;;;;5075586;28;20660;-74
2022/08/16 05:23:02;;;;;;;14.00;9.83;;;18.30;99.90;;;;;;5076200;28;21003;-74
2022/08/16 05:25:28;;;;;;;10.20;9.37;;;18.20;99.90;;;;;;5076160;28;20634;-75
2022/08/16 05:27:56;;;;;;;10.73;9.83;;;18.20;99.90;;;;;;5076754;28;20593;-74
2022/08/16 05:30:23;;;;;;;11.13;10.20;;;18.30;99.90;;;;;;5076573;28;20597;-74
2022/08/16 05:32:49;;;;;;;10.33;9.43;;;18.40;99.90;;;;;;5076212;28;21037;-74
2022/08/16 05:35:16;;;;;;;13.50;9.70;;;18.50;99.90;;;;;;5076206;28;20578;-74
2022/08/16 05:37:43;;;;;;;10.90;10.00;;;18.60;99.90;;;;;;5076156;28;20586;-74
2022/08/16 05:40:11;;;;;;;10.83;9.83;;;18.50;99.90;;;;;;5074681;28;20618;-74
2022/08/16 05:42:38;;;;;;;10.87;9.93;;;18.60;99.90;;;;;;5075844;28;21194;-75
2022/08/16 05:45:06;;;;;;;10.50;9.60;;;18.70;99.90;;;;;;5075914;28;20586;-74
2022/08/16 05:47:32;;;;;;;13.23;10.67;;;18.70;99.90;;;;;;5074602;28;20630;-76
2022/08/16 05:49:59;;;;;;;12.60;11.30;;;18.70;99.90;;;;;;5076154;28;20586;-74
2022/08/16 05:52:25;;;;;;;13.23;10.07;;;18.60;99.90;;;;;;5074986;28;20626;-74
2022/08/16 05:54:51;;;;;;;12.20;11.00;;;18.60;99.90;;;;;;5076775;28;20588;-75
2022/08/16 05:57:19;;;;;;;13.07;10.50;;;18.70;99.90;;;;;;5076191;28;20571;-74
2022/08/16 05:59:46;;;;;;;15.60;10.20;;;18.90;99.90;;;;;;5075489;28;20606;-74
2022/08/16 06:02:13;;;;;;;11.17;10.17;;;19.10;99.90;;;;;;5074639;28;20618;-74
2022/08/16 06:04:40;;;;;;;18.90;11.23;;;19.30;99.90;;;;;;5075902;28;20661;-74
2022/08/16 06:07:07;;;;;;;12.03;10.37;;;19.40;99.90;;;;;;5074568;28;20575;-74
2022/08/16 06:09:34;;;;;;;16.03;11.10;;;19.20;99.90;;;;;;5076072;28;21240;-75
2022/08/16 06:12:01;;;;;;;12.97;10.47;;;19.20;99.90;;;;;;5075552;28;21296;-75
2022/08/16 06:14:28;;;;;;;10.63;9.20;;;19.10;99.90;;;;;;5075346;28;21198;-74
2022/08/16 06:16:56;;;;;;;10.87;9.43;;;19.10;99.90;;;;;;5075272;28;21105;-74
2022/08/16 06:19:22;;;;;;;11.43;10.53;;;19.20;99.90;;;;;;5075554;28;20610;-74
2022/08/16 06:21:49;;;;;;;11.17;10.17;;;19.30;99.90;;;;;;5075337;28;20582;-74
2022/08/16 06:24:15;;;;;;;10.47;9.50;;;19.50;99.90;;;;;;5075363;28;20637;-74
2022/08/16 06:26:42;;;;;;;10.50;9.50;;;19.60;99.90;;;;;;5075411;28;20610;-74
2022/08/16 06:29:09;;;;;;;11.10;8.87;;;19.70;99.90;;;;;;5075049;28;21215;-74
2022/08/16 06:31:36;;;;;;;12.10;9.80;;;19.90;99.90;;;;;;5073187;28;20833;-74
2022/08/16 06:34:03;;;;;;;10.17;9.27;;;20.00;99.90;;;;;;5074827;28;20619;-74
2022/08/16 06:36:29;;;;;;;10.30;9.30;;;20.00;99.90;;;;;;5074663;28;20590;-74
2022/08/16 06:38:56;;;;;;;10.17;9.47;;;20.00;99.90;;;;;;5073339;28;20618;-74
2022/08/16 06:41:23;;;;;;;10.60;9.60;;;20.00;99.90;;;;;;5075071;28;20618;-74
2022/08/16 06:43:49;;;;;;;14.10;10.70;;;20.10;99.90;;;;;;5074568;28;20577;-74
2022/08/16 06:46:24;;;;;;;11.10;9.60;;;20.10;99.90;;;;;;5075129;28;20567;-74
2022/08/16 06:48:50;;;;;;;10.43;9.53;;;20.30;99.90;;;;;;5075151;28;20613;-73
2022/08/16 06:51:17;;;;;;;13.83;10.47;;;20.40;99.90;;;;;;5080561;28;20571;-73
2022/08/16 06:53:43;;;;;;;13.60;10.70;;;20.60;99.90;;;;;;5080785;28;20942;-73
2022/08/16 06:56:10;;;;;;;10.90;9.90;;;20.40;99.90;;;;;;5080198;28;20684;-73
2022/08/16 06:58:36;;;;;;;12.40;9.00;;;20.50;99.90;;;;;;5078963;28;20666;-73
2022/08/16 07:01:03;;;;;;;10.47;9.47;;;20.60;99.90;;;;;;5076840;28;20582;-73
2022/08/16 07:03:30;;;;;;;11.40;8.93;;;20.60;99.90;;;;;;5078083;28;20567;-73
2022/08/16 07:05:57;;;;;;;11.73;10.40;;;20.70;99.90;;;;;;5077716;28;20756;-73
2022/08/16 07:08:25;;;;;;;9.60;8.80;;;20.90;99.90;;;;;;5077654;28;20669;-73
2022/08/16 07:10:51;;;;;;;10.77;9.53;;;20.90;99.90;;;;;;5077820;28;20972;-75
2022/08/16 07:13:19;;;;;;;10.33;9.53;;;21.10;99.90;;;;;;5077190;28;21028;-73
2022/08/16 07:15:48;;;;;;;9.50;8.53;;;21.20;99.90;;;;;;5077701;28;20617;-73
2022/08/16 07:18:18;;;;;;;12.40;9.00;;;21.30;99.90;;;;;;5078186;28;20689;-73
2022/08/16 07:20:46;;;;;;;8.60;7.90;;;21.40;99.90;;;;;;5077091;28;20567;-73
2022/08/16 07:23:12;;;;;;;8.30;7.60;;;21.70;99.90;;;;;;5075800;28;20578;-73
2022/08/16 07:25:39;;;;;;;9.63;8.93;;;21.70;99.90;;;;;;5076077;28;20684;-73
2022/08/16 07:28:05;;;;;;;12.07;8.17;;;21.90;99.90;;;;;;5076021;28;20644;-73
2022/08/16 07:30:32;;;;;;;7.87;7.27;;;21.90;99.90;;;;;;5075617;28;20622;-73
2022/08/16 07:32:59;;;;;;;9.63;8.00;;;22.10;99.90;;;;;;5074287;28;20691;-74
2022/08/16 07:35:26;;;;;;;9.17;8.47;;;22.30;99.90;;;;;;5074385;28;21116;-73
2022/08/16 07:37:52;;;;;;;10.40;8.73;;;22.00;99.90;;;;;;5076663;28;20767;-73
2022/08/16 07:40:19;;;;;;;9.27;8.33;;;21.90;99.90;;;;;;5076929;28;20563;-73
2022/08/16 07:42:45;;;;;;;9.17;8.27;;;21.80;99.90;;;;;;5077509;28;20736;-73
2022/08/16 07:45:12;;;;;;;8.77;7.87;;;22.20;99.90;;;;;;5075506;28;20647;-73
2022/08/16 07:47:39;;;;;;;8.03;7.23;;;22.50;99.90;;;;;;5075198;28;20644;-74
2022/08/16 07:50:06;;;;;;;7.47;6.83;;;22.50;99.90;;;;;;5074524;28;21105;-73
2022/08/16 07:52:33;;;;;;;9.00;8.30;;;22.50;99.90;;;;;;5075175;28;20679;-74
2022/08/16 07:54:59;;;;;;;11.67;8.77;;;22.30;99.90;;;;;;5075178;28;20610;-74
2022/08/16 07:57:25;;;;;;;7.47;6.77;;;22.50;99.90;;;;;;5075316;28;21102;-73
2022/08/16 07:59:52;;;;;;;8.40;7.60;;;23.00;99.90;;;;;;5073868;28;20625;-73
2022/08/16 08:02:18;;;;;;;9.70;8.30;;;23.10;99.90;;;;;;5073413;28;20626;-73
2022/08/16 08:04:45;;;;;;;7.97;7.27;;;23.00;99.90;;;;;;5075541;28;20646;-73
2022/08/16 08:07:12;;;;;;;7.73;7.00;;;23.20;99.90;;;;;;5074803;28;21016;-73
2022/08/16 08:09:39;;;;;;;7.70;7.10;;;23.20;99.90;;;;;;5074866;28;20644;-73
2022/08/16 08:12:06;;;;;;;9.10;7.90;;;23.20;99.90;;;;;;5075112;28;20666;-73
2022/08/16 08:14:33;;;;;;;8.20;7.50;;;23.20;99.90;;;;;;5074238;28;20586;-73
2022/08/16 08:17:00;;;;;;;8.33;7.40;;;23.30;99.90;;;;;;5072497;28;21025;-73
2022/08/16 08:19:26;;;;;;;7.90;7.03;;;23.40;99.90;;;;;;5073940;28;20622;-73
2022/08/16 08:21:53;;;;;;;8.63;7.83;;;23.50;99.90;;;;;;5074692;28;20574;-73
2022/08/16 08:24:22;;;;;;;7.13;6.53;;;23.40;99.90;;;;;;5074726;28;20665;-73
2022/08/16 08:26:48;;;;;;;8.97;6.73;;;23.40;99.90;;;;;;5075585;28;20570;-73
2022/08/16 08:29:15;;;;;;;11.60;7.03;;;23.50;99.90;;;;;;5075606;28;20591;-73
2022/08/16 08:31:42;;;;;;;7.23;6.63;;;23.60;99.90;;;;;;5076523;28;20582;-73
2022/08/16 08:34:08;;;;;;;9.90;7.60;;;23.60;99.90;;;;;;5074413;28;20570;-73
2022/08/16 08:36:35;;;;;;;9.20;6.80;;;23.90;99.90;;;;;;5073467;28;20610;-73
2022/08/16 08:39:04;;;;;;;8.60;6.83;;;24.00;99.90;;;;;;5073225;28;20606;-73
2022/08/16 08:41:31;;;;;;;10.87;7.03;;;24.00;99.90;;;;;;5074696;28;20642;-73
2022/08/16 08:43:57;;;;;;;7.33;6.67;;;23.90;99.90;;;;;;5075525;28;21024;-73
2022/08/16 08:46:25;;;;;;;6.90;6.40;;;24.00;99.90;;;;;;5075407;28;20593;-73
2022/08/16 08:48:53;;;;;;;6.90;6.20;;;24.00;99.90;;;;;;5074390;28;20649;-73
2022/08/16 08:51:19;;;;;;;11.03;7.10;;;24.00;99.90;;;;;;5075746;28;20633;-73
2022/08/16 08:53:47;;;;;;;7.17;6.60;;;24.40;99.90;;;;;;5074308;28;20637;-73
2022/08/16 08:56:14;;;;;;;7.77;6.37;;;24.30;99.90;;;;;;5075573;28;20625;-73
2022/08/16 08:58:41;;;;;;;6.97;6.30;;;24.10;99.90;;;;;;5077263;28;20574;-73
2022/08/16 09:01:07;;;;;;;6.87;6.33;;;24.20;99.90;;;;;;5074799;28;21184;-71
2022/08/16 09:03:35;;;;;;;7.80;6.53;;;24.60;99.90;;;;;;5076175;28;20593;-71
2022/08/16 09:06:03;;;;;;;7.30;6.10;;;24.90;99.90;;;;;;5075841;28;20654;-71
2022/08/16 09:08:31;;;;;;;7.63;6.20;;;25.30;99.90;;;;;;5076240;28;20580;-71
2022/08/16 09:10:58;;;;;;;7.93;7.40;;;25.10;99.90;;;;;;5076366;28;20578;-71
2022/08/16 09:13:26;;;;;;;8.53;6.60;;;24.70;99.90;;;;;;5076169;28;20641;-71
2022/08/16 09:15:56;;;;;;;7.50;6.47;;;24.60;99.90;;;;;;5075827;28;20620;-71
2022/08/16 09:18:23;;;;;;;7.57;6.80;;;25.20;99.90;;;;;;5075638;28;20636;-72
2022/08/16 09:20:51;;;;;;;6.80;6.17;;;25.60;99.90;;;;;;5075803;28;21016;-76
2022/08/16 09:23:19;;;;;;;6.50;6.00;;;25.60;99.90;;;;;;5076325;28;20701;-75
2022/08/16 09:25:46;;;;;;;7.27;6.70;;;25.10;99.90;;;;;;5074923;28;20589;-75
2022/08/16 09:28:12;;;;;;;6.33;5.93;;;25.30;99.90;;;;;;5075641;28;20645;-73
2022/08/16 09:30:39;;;;;;;6.87;6.30;;;25.10;99.90;;;;;;5078721;28;20618;-73
2022/08/16 09:33:06;;;;;;;7.43;6.40;;;25.50;99.90;;;;;;5075397;28;21196;-74
2022/08/16 09:35:34;;;;;;;6.40;5.90;;;25.30;99.90;;;;;;5075541;28;20594;-74
2022/08/16 09:38:00;;;;;;;8.90;6.60;;;25.60;99.90;;;;;;5075684;28;20614;-74
2022/08/16 09:40:27;;;;;;;6.90;6.30;;;26.10;99.90;;;;;;5075317;28;20610;-73
2022/08/16 09:42:56;;;;;;;6.27;5.73;;;25.80;99.90;;;;;;5075350;28;20924;-74
2022/08/16 09:45:24;;;;;;;6.40;5.90;;;26.20;99.90;;;;;;5075478;28;20585;-73
2022/08/16 09:47:53;;;;;;;6.80;6.20;;;25.80;99.90;;;;;;5075074;28;20633;-76
2022/08/16 09:50:21;;;;;;;6.60;6.10;;;26.10;99.90;;;;;;5076066;28;20614;-74
2022/08/16 09:52:48;;;;;;;7.17;6.57;;;26.10;99.90;;;;;;5074776;28;21020;-73
2022/08/16 09:55:14;;;;;;;6.93;6.23;;;26.10;99.90;;;;;;5075207;28;20618;-73
2022/08/16 09:57:41;;;;;;;7.87;7.27;;;26.40;99.90;;;;;;5073886;28;20617;-74
2022/08/16 10:00:10;;;;;;;7.13;6.47;;;26.30;99.90;;;;;;5075359;28;20610;-72
2022/08/16 10:02:36;;;;;;;7.30;6.70;;;26.50;99.90;;;;;;5075097;28;20634;-72
2022/08/16 10:05:03;;;;;;;6.90;6.40;;;25.80;99.90;;;;;;5074975;28;20653;-72
2022/08/16 10:07:31;;;;;;;6.53;6.07;;;25.90;99.90;;;;;;5073598;28;20582;-71
2022/08/16 10:09:58;;;;;;;7.20;6.50;;;26.00;99.90;;;;;;5074668;28;20581;-72
2022/08/16 10:15:15;;;;;;;6.27;5.77;;;26.60;99.90;;;;;;5075335;28;20567;-74
2022/08/16 10:17:46;;;;;;;7.03;6.53;;;26.40;99.90;;;;;;5074051;28;21027;-69
2022/08/16 10:20:13;;;;;;;12.27;6.33;;;26.10;99.90;;;;;;5073584;28;21004;-69
2022/08/16 10:22:40;;;;;;;6.20;5.67;;;25.80;99.90;;;;;;5074580;28;20618;-69
2022/08/16 10:25:07;;;;;;;7.47;6.00;;;25.80;99.90;;;;;;5074688;28;20626;-69
2022/08/16 10:27:34;;;;;;;10.07;6.93;;;25.80;99.90;;;;;;5074677;28;20663;-69
2022/08/16 10:30:02;;;;;;;6.80;6.17;;;26.00;99.90;;;;;;5074405;28;20969;-69
2022/08/16 10:32:29;;;;;;;6.73;6.13;;;26.00;99.90;;;;;;5073940;28;20991;-68
2022/08/16 10:34:56;;;;;;;7.30;6.60;;;26.10;99.90;;;;;;5074012;28;20570;-68
2022/08/16 10:37:22;;;;;;;5.77;5.37;;;26.30;99.90;;;;;;5074065;28;20579;-68
2022/08/16 10:39:49;;;;;;;5.90;5.40;;;26.20;99.90;;;;;;5074091;28;20918;-68
2022/08/16 10:42:16;;;;;;;6.80;6.10;;;26.20;99.90;;;;;;5079193;28;20583;-71
2022/08/16 10:44:43;;;;;;;6.23;5.70;;;26.00;99.90;;;;;;5093459;28;20578;-71
2022/08/16 10:47:10;;;;;;;7.90;6.60;;;26.20;99.90;;;;;;5092365;28;20614;-71
2022/08/16 10:49:37;;;;;;;6.80;6.30;;;25.90;99.90;;;;;;5093244;28;20575;-71
2022/08/16 10:52:04;;;;;;;11.97;6.43;;;26.30;99.90;;;;;;5091803;28;20635;-71
2022/08/16 10:54:31;;;;;;;6.50;5.87;;;26.50;99.90;;;;;;5091489;28;20705;-71
2022/08/16 10:56:59;;;;;;;7.40;6.60;;;26.60;99.90;;;;;;5088914;28;20645;-72
2022/08/16 10:59:28;;;;;;;6.67;6.07;;;26.70;99.90;;;;;;5089125;28;20668;-71
2022/08/16 11:01:54;;;;;;;6.23;5.50;;;26.90;99.90;;;;;;5086244;28;20642;-71
2022/08/16 11:04:21;;;;;;;8.10;6.10;;;27.50;99.90;;;;;;5088482;28;20626;-72
2022/08/16 11:06:47;;;;;;;6.57;6.17;;;27.50;99.90;;;;;;5089155;28;20657;-71
2022/08/16 11:09:14;;;;;;;6.33;5.93;;;27.30;99.90;;;;;;5073051;28;20629;-71
2022/08/16 11:11:40;;;;;;;6.13;5.60;;;27.20;99.90;;;;;;5087270;28;20635;-71
2022/08/16 11:14:07;;;;;;;6.73;6.03;;;27.20;99.90;;;;;;5087149;28;20642;-71
2022/08/16 11:16:33;;;;;;;8.80;6.00;;;27.00;99.90;;;;;;5086205;28;20652;-71
2022/08/16 11:19:01;;;;;;;7.23;6.00;;;27.40;99.90;;;;;;5084949;28;21098;-72
2022/08/16 11:21:27;;;;;;;6.60;6.20;;;27.90;99.90;;;;;;5084772;28;20598;-71
2022/08/16 11:23:55;;;;;;;6.17;5.67;;;27.70;99.90;;;;;;5085082;28;20642;-71
2022/08/16 11:26:21;;;;;;;8.63;5.80;;;28.00;99.90;;;;;;5080697;28;20981;-71
2022/08/16 11:28:49;;;;;;;5.97;5.47;;;29.10;99.90;;;;;;5077686;28;20640;-71
2022/08/16 11:31:17;;;;;;;6.30;5.70;;;29.00;99.90;;;;;;5076475;28;20621;-71
2022/08/16 11:33:43;;;;;;;6.07;5.20;;;30.10;99.90;;;;;;5076740;28;20662;-71
2022/08/16 11:36:10;;;;;;;5.70;5.27;;;29.50;99.90;;;;;;5075207;28;20614;-71
2022/08/16 11:38:36;;;;;;;5.47;5.13;;;29.00;99.90;;;;;;5077324;28;20703;-71
2022/08/16 11:41:03;;;;;;;5.80;5.50;;;29.50;99.90;;;;;;5076467;28;20574;-71
2022/08/16 11:43:33;;;;;;;6.93;5.50;;;29.80;99.90;;;;;;5076533;28;20621;-71
2022/08/16 11:46:04;;;;;;;6.03;5.47;;;29.20;99.90;;;;;;5076835;28;20639;-71
2022/08/16 11:48:32;;;;;;;5.77;5.27;;;29.40;99.90;;;;;;5077195;28;20586;-71
2022/08/16 11:51:00;;;;;;;6.03;5.63;;;30.20;99.90;;;;;;5079638;28;20581;-71
2022/08/16 11:53:27;;;;;;;6.90;5.17;;;30.50;99.90;;;;;;5077131;28;21027;-71
2022/08/16 11:55:55;;;;;;;5.27;4.97;;;29.40;99.90;;;;;;5077587;28;20976;-71
2022/08/16 11:58:26;;;;;;;5.40;4.80;;;28.70;99.90;;;;;;5076878;28;20582;-71
2022/08/16 12:00:56;;;;;;;5.77;5.27;;;29.00;99.90;;;;;;5083222;28;21109;-71
2022/08/16 12:03:30;;;;;;;5.30;4.90;;;28.60;99.90;;;;;;5075932;28;20613;-68
2022/08/16 12:05:58;;;;;;;5.57;5.17;;;28.50;99.90;;;;;;5072812;28;20657;-68
2022/08/16 12:08:25;;;;;;;5.77;5.27;;;29.20;99.90;;;;;;5073251;28;20590;-68
2022/08/16 12:10:52;;;;;;;5.07;4.77;;;28.90;99.90;;;;;;5073043;28;21035;-68
2022/08/16 12:13:18;;;;;;;5.00;4.70;;;29.50;99.90;;;;;;5072930;28;20634;-68
2022/08/16 12:15:45;;;;;;;5.30;4.90;;;30.40;99.90;;;;;;5072820;28;20980;-68
2022/08/16 12:18:12;;;;;;;8.07;5.03;;;30.10;99.90;;;;;;5072997;28;20764;-68
2022/08/16 12:20:42;;;;;;;5.07;4.67;;;30.00;99.90;;;;;;5073060;28;20989;-69
2022/08/16 12:23:08;;;;;;;4.80;4.50;;;30.10;99.90;;;;;;5072818;28;20679;-69
2022/08/16 12:25:36;;;;;;;5.07;4.60;;;29.60;99.90;;;;;;5073116;28;20637;-68
2022/08/16 12:28:05;;;;;;;4.97;4.63;;;29.40;99.90;;;;;;5072791;28;20638;-68
2022/08/16 12:30:35;;;;;;;5.40;4.87;;;29.70;99.90;;;;;;5075139;28;21195;-68
2022/08/16 12:33:03;;;;;;;6.97;4.47;;;30.30;99.90;;;;;;5076730;28;20630;-68
2022/08/16 12:35:31;;;;;;;4.70;4.30;;;31.60;99.90;;;;;;5076343;28;20592;-68
2022/08/16 12:37:59;;;;;;;4.63;4.20;;;30.60;99.90;;;;;;5076345;28;20622;-69
2022/08/16 12:40:32;;;;;;;6.13;4.53;;;31.20;99.90;;;;;;5076770;28;20618;-69
2022/08/16 12:43:01;;;;;;;4.50;4.10;;;31.60;99.90;;;;;;5076407;28;21196;-69
2022/08/16 12:45:31;;;;;;;4.97;4.03;;;31.10;99.90;;;;;;5076566;28;20601;-69
2022/08/16 12:50:44;;;;;;;4.63;4.33;;;31.90;99.90;;;;;;5075977;28;20566;-69